^^
Meteo Knjazevac Station Historical Data
Daily Summary for June 30, 2022 Units:  English    Metric   Both
Daily Weekly Monthly Yearly Custom
  High: Low: Average:
Temperature: 95 °F 56.5 °F 76.4 °F
Dew Point: 73.5 °F 55.4 °F 65.5 °F
Humidity: 99% 47% 73%
Wind Speed: 6mph 0mph 1.4mph
Wind Gust: 12mph - -
Wind- - South
Pressure: 30.03 in 29.94 in -
Precipitation: 0.00 in    
Historical Graphs
 
 
Tabular Data for June 30, 2022
Time Temperature Dew Point Pressure Wind Wind Speed Wind Gust Humidity Rainfall Rate (Hourly) solar Conditions
00:00 64.4 °F 61.1 °F 30.01 in West 2 mph 4 mph 89% 0.00 in 0 W/m2
00:10 63.7 °F 60.7 °F 30.01 in West 1 mph 5 mph 90% 0.00 in 0 W/m2
00:20 63.2 °F 60.2 °F 30.01 in WSW 1 mph 5 mph 90% 0.00 in 0 W/m2
00:50 62.2 °F 59.6 °F 30.01 in Calm   2 mph 91% 0.00 in 0 W/m2
01:00 61.7 °F 59.7 °F 30.02 in West 2 mph 5 mph 93% 0.00 in 0 W/m2
01:10 61.5 °F 59.5 °F 30.02 in WNW 1 mph 5 mph 93% 0.00 in 0 W/m2
01:20 61.3 °F 59.3 °F 30.01 in WSW 1 mph 5 mph 93% 0.00 in 0 W/m2
01:30 61.2 °F 59.1 °F 30.01 in WSW 1 mph 2 mph 93% 0.00 in 0 W/m2
01:50 60.6 °F 58.6 °F 30.01 in WNW 1 mph 4 mph 93% 0.00 in 0 W/m2
02:00 60.4 °F 58.7 °F 30.01 in WNW 1 mph 3 mph 94% 0.00 in 0 W/m2
02:10 60.3 °F 58.5 °F 30.01 in West 1 mph 2 mph 94% 0.00 in 0 W/m2
02:20 59.9 °F 58.2 °F 30.01 in WNW 1 mph 2 mph 94% 0.00 in 0 W/m2
02:30 59.7 °F 58 °F 30.02 in WNW 1 mph 2 mph 94% 0.00 in 0 W/m2
02:40 59.4 °F 57.6 °F 30.01 in West 1 mph 3 mph 94% 0.00 in 0 W/m2
03:00 59.2 °F 57.5 °F 30.01 in WNW 1 mph 3 mph 94% 0.00 in 0 W/m2
03:10 59 °F 57.3 °F 30.01 in Calm   3 mph 94% 0.00 in 0 W/m2
03:20 58.6 °F 56.9 °F 30.01 in West 2 mph 3 mph 94% 0.00 in 0 W/m2
03:30 58.5 °F 56.7 °F 30.01 in West 1 mph 3 mph 94% 0.00 in 0 W/m2
03:40 58.3 °F 56.6 °F 30.01 in Calm   2 mph 94% 0.00 in 0 W/m2
04:00 57.9 °F 56.5 °F 30.01 in WNW 1 mph 3 mph 95% 0.00 in 0 W/m2
04:10 57.6 °F 56.1 °F 30.01 in West 2 mph 4 mph 95% 0.00 in 0 W/m2
04:20 57.6 °F 56.1 °F 30.01 in NW 1 mph 3 mph 95% 0.00 in 0 W/m2
04:30 57.4 °F 56 °F 30.01 in WNW 1 mph 2 mph 95% 0.00 in 0 W/m2
04:40 57 °F 55.6 °F 30.01 in WSW 1 mph 2 mph 95% 0.00 in 0 W/m2
05:00 56.7 °F 55.5 °F 30.01 in WSW 1 mph 4 mph 96% 0.00 in 7 W/m2
05:10 56.7 °F 55.5 °F 30.01 in West 1 mph 4 mph 96% 0.00 in 12 W/m2
05:20 56.5 °F 55.4 °F 30.01 in Calm   3 mph 96% 0.00 in 20 W/m2
05:30 56.5 °F 55.9 °F 30.01 in Calm   2 mph 98% 0.00 in 27 W/m2
05:40 56.7 °F 56.1 °F 30.01 in Calm   2 mph 98% 0.00 in 33 W/m2
05:50 56.7 °F 55.5 °F 30.02 in North 1 mph 2 mph 96% 0.00 in 58 W/m2
06:00 56.8 °F 55.7 °F 30.02 in Calm   2 mph 96% 0.00 in 86 W/m2
06:10 56.8 °F 56.3 °F 30.02 in NNE 2 mph 3 mph 98% 0.00 in 108 W/m2
06:20 57.4 °F 57.1 °F 30.02 in Calm   3 mph 99% 0.00 in 131 W/m2
06:50 58.3 °F 57.7 °F 30.02 in Calm   1 mph 98% 0.00 in 212 W/m2
07:00 58.8 °F 58.3 °F 30.03 in NE 1 mph 3 mph 98% 0.00 in 241 W/m2
07:10 59.7 °F 59.1 °F 30.03 in NE 1 mph 3 mph 98% 0.00 in 272 W/m2
07:20 60.6 °F 59.2 °F 30.03 in NE 1 mph 4 mph 95% 0.00 in 304 W/m2
07:30 61.5 °F 60.1 °F 30.03 in NNE 1 mph 4 mph 95% 0.00 in 334 W/m2
07:40 62 °F 60.3 °F 30.03 in North 1 mph 3 mph 94% 0.00 in 367 W/m2
07:50 62.8 °F 60.1 °F 30.03 in Calm   2 mph 91% 0.00 in 404 W/m2
08:10 64.4 °F 61.4 °F 30.03 in WSW 1 mph 3 mph 90% 0.00 in 479 W/m2
08:20 66 °F 62.7 °F 30.03 in WNW 1 mph 4 mph 89% 0.00 in 511 W/m2
08:40 70.1 °F 64.7 °F 30.03 in WSW 1 mph 3 mph 83% 0.00 in 574 W/m2
08:50 71.9 °F 64.7 °F 30.03 in ENE 2 mph 6 mph 78% 0.00 in 606 W/m2
09:00 73.2 °F 64.8 °F 30.03 in Calm   6 mph 75% 0.00 in 636 W/m2
09:20 76.1 °F 66.8 °F 30.03 in NNE 1 mph 6 mph 73% 0.00 in 696 W/m2
09:30 77.2 °F 66.6 °F 30.02 in North 3 mph 7 mph 70% 0.00 in 724 W/m2
09:40 78.4 °F 67 °F 30.02 in NNE 2 mph 7 mph 68% 0.00 in 752 W/m2
09:50 79.5 °F 66.7 °F 30.02 in NNE 2 mph 7 mph 65% 0.00 in 774 W/m2
10:00 80.4 °F 67.1 °F 30.02 in North 2 mph 6 mph 64% 0.00 in 801 W/m2
10:10 81.5 °F 67.7 °F 30.02 in North 2 mph 6 mph 63% 0.00 in 823 W/m2
10:20 82.2 °F 67.9 °F 30.01 in NE 1 mph 8 mph 62% 0.00 in 846 W/m2
10:30 83.1 °F 68.7 °F 30.01 in North 2 mph 6 mph 62% 0.00 in 864 W/m2
10:40 83.8 °F 69.4 °F 30.01 in NNE 3 mph 9 mph 62% 0.00 in 849 W/m2
10:50 84.7 °F 70.3 °F 30.01 in NNE 5 mph 8 mph 62% 0.00 in 842 W/m2
11:00 85.4 °F 69.5 °F 30.01 in NNE 2 mph 7 mph 59% 0.00 in 914 W/m2
11:10 86.2 °F 70.2 °F 30.01 in NNE 3 mph 7 mph 59% 0.00 in 926 W/m2
11:30 87.4 °F 70.3 °F 30.00 in NNE 3 mph 9 mph 57% 0.00 in 948 W/m2
11:50 88.7 °F 70.5 °F 30.00 in North 3 mph 7 mph 55% 0.00 in 963 W/m2
12:00 89.2 °F 69.9 °F 30.00 in North 3 mph 7 mph 53% 0.00 in 901 W/m2
12:10 89.6 °F 70.2 °F 29.99 in North 3 mph 7 mph 53% 0.00 in 647 W/m2
12:30 90.7 °F 70.6 °F 29.99 in NNE 1 mph 7 mph 52% 0.00 in 831 W/m2
12:40 91.2 °F 71.1 °F 29.99 in North 1 mph 7 mph 52% 0.00 in 760 W/m2
12:50 91.6 °F 72 °F 29.99 in North 3 mph 6 mph 53% 0.00 in 311 W/m2
13:00 91.8 °F 71.6 °F 29.98 in WNW 2 mph 6 mph 52% 0.00 in 952 W/m2
13:10 91.9 °F 71.8 °F 29.98 in WNW 1 mph 6 mph 52% 0.00 in 965 W/m2
13:20 92.3 °F 72.1 °F 29.98 in NNE 1 mph 7 mph 52% 0.00 in 959 W/m2
13:30 92.5 °F 72.3 °F 29.97 in North 2 mph 5 mph 52% 0.00 in 951 W/m2
13:40 92.7 °F 72.5 °F 29.97 in WSW 3 mph 6 mph 52% 0.00 in 942 W/m2
14:00 93 °F 72.8 °F 29.97 in West 3 mph 8 mph 52% 0.00 in 919 W/m2
14:20 93 °F 72.8 °F 29.96 in WNW 3 mph 8 mph 52% 0.00 in 890 W/m2
14:30 93 °F 73.4 °F 29.96 in West 2 mph 8 mph 53% 0.00 in 874 W/m2
14:40 93.2 °F 73 °F 29.95 in West 6 mph 11 mph 52% 0.00 in 857 W/m2
15:00 93.2 °F 73.5 °F 29.95 in WSW 3 mph 8 mph 53% 0.00 in 818 W/m2
15:10 93.6 °F 73.3 °F 29.95 in West 3 mph 10 mph 52% 0.00 in 797 W/m2
15:30 94.5 °F 72.9 °F 29.94 in SE 1 mph 8 mph 50% 0.00 in 751 W/m2
15:40 94.5 °F 71.7 °F 29.95 in NNE 2 mph 12 mph 48% 0.00 in 722 W/m2
15:50 94.8 °F 72.7 °F 29.94 in North 1 mph 8 mph 49% 0.00 in 695 W/m2
16:00 95 °F 72.8 °F 29.94 in NE 2 mph 9 mph 49% 0.00 in 665 W/m2
16:10 95 °F 72.2 °F 29.94 in NE 3 mph 8 mph 48% 0.00 in 285 W/m2
16:20 94.6 °F 71.9 °F 29.94 in NNE 3 mph 10 mph 48% 0.00 in 597 W/m2
16:30 94.3 °F 71 °F 29.94 in ENE 2 mph 8 mph 47% 0.00 in 405 W/m2
16:50 94.3 °F 71.6 °F 29.94 in NE 3 mph 10 mph 48% 0.00 in 508 W/m2
17:00 94.5 °F 71.1 °F 29.94 in NE 2 mph 8 mph 47% 0.00 in 474 W/m2
17:40 94.3 °F 71 °F 29.94 in NE 2 mph 7 mph 47% 0.00 in 335 W/m2
17:50 94.3 °F 71 °F 29.94 in North 2 mph 7 mph 47% 0.00 in 309 W/m2
18:10 94.1 °F 70.8 °F 29.94 in NE 1 mph 5 mph 47% 0.00 in 248 W/m2
18:20 93.7 °F 70.5 °F 29.94 in NE 1 mph 6 mph 47% 0.00 in 218 W/m2
18:30 93.4 °F 70.1 °F 29.94 in ENE 1 mph 6 mph 47% 0.00 in 188 W/m2
18:40 93.2 °F 70 °F 29.94 in NNE 1 mph 6 mph 47% 0.00 in 161 W/m2
18:50 92.8 °F 70.3 °F 29.94 in Calm   6 mph 48% 0.00 in 133 W/m2
19:00 92.3 °F 69.8 °F 29.94 in NNW 1 mph 4 mph 48% 0.00 in 106 W/m2
19:10 91.6 °F 70.3 °F 29.94 in Calm   3 mph 50% 0.00 in 72 W/m2
19:20 90.7 °F 70.6 °F 29.94 in Calm   3 mph 52% 0.00 in 62 W/m2
19:30 89.6 °F 69.6 °F 29.95 in NNW 1 mph 3 mph 52% 0.00 in 40 W/m2
19:40 88.3 °F 69 °F 29.95 in NNW 1 mph 4 mph 53% 0.00 in 29 W/m2
19:50 87.2 °F 69.1 °F 29.95 in NW 2 mph 5 mph 55% 0.00 in 17 W/m2
20:00 86.2 °F 70.7 °F 29.96 in SW 1 mph 5 mph 60% 0.00 in 10 W/m2
20:10 85.1 °F 70.6 °F 29.96 in SSW 1 mph 3 mph 62% 0.00 in 5 W/m2
20:20 84 °F 70.1 °F 29.96 in SW 1 mph 3 mph 63% 0.00 in 0 W/m2
20:30 82.9 °F 69.5 °F 29.96 in SW 1 mph 5 mph 64% 0.00 in 0 W/m2
20:40 81.9 °F 69.8 °F 29.97 in SW 2 mph 3 mph 67% 0.00 in 0 W/m2
20:50 81.1 °F 69.6 °F 29.97 in SW 2 mph 3 mph 68% 0.00 in 0 W/m2
21:00 80 °F 69 °F 29.97 in SSW 2 mph 4 mph 69% 0.00 in 0 W/m2
21:10 79 °F 69.6 °F 29.98 in WSW 2 mph 4 mph 73% 0.00 in 0 W/m2
21:20 78.1 °F 68.3 °F 29.98 in WSW 2 mph 4 mph 72% 0.00 in 0 W/m2
21:30 77.2 °F 68.2 °F 29.99 in SW 2 mph 3 mph 74% 0.00 in 0 W/m2
21:40 76.5 °F 67.9 °F 29.99 in WSW 2 mph 3 mph 75% 0.00 in 0 W/m2
21:50 75.7 °F 68 °F 29.99 in SW 1 mph 3 mph 77% 0.00 in 0 W/m2
22:00 75.2 °F 67.5 °F 29.99 in Calm   2 mph 77% 0.00 in 0 W/m2
22:10 74.7 °F 67 °F 29.99 in West 1 mph 2 mph 77% 0.00 in 0 W/m2
22:20 74.3 °F 67.3 °F 29.99 in SSW 1 mph 2 mph 79% 0.00 in 0 W/m2
22:40 73.2 °F 66.7 °F 29.99 in Calm   1 mph 80% 0.00 in 0 W/m2
22:50 72.3 °F 66.2 °F 29.99 in Calm     81% 0.00 in 0 W/m2
23:00 72 °F 65.8 °F 30.00 in Calm   3 mph 81% 0.00 in 0 W/m2
23:20 71.2 °F 65.7 °F 30.00 in SW 1 mph 2 mph 83% 0.00 in 0 W/m2
23:30 70.7 °F 65.6 °F 30.00 in Calm   2 mph 84% 0.00 in 0 W/m2
23:40 70.5 °F 65.1 °F 29.99 in SW 1 mph 2 mph 83% 0.00 in 0 W/m2
23:50 69.8 °F 65.1 °F 30.00 in Calm   2 mph 85% 0.00 in 0 W/m2
Knjazevac, Serbia
Compliments of Weather Underground - 2 mb